sensor_id;sensor_type;location;lat;lon;timestamp;P1;durP1;ratioP1;P2;durP2;ratioP2
57113;SDS011;42994;51.606;9.988;2023-07-24T00:00:27;1.40;;;1.30;;
57113;SDS011;42994;51.606;9.988;2023-07-24T00:02:54;2.53;;;1.20;;
57113;SDS011;42994;51.606;9.988;2023-07-24T00:05:22;1.63;;;1.52;;
57113;SDS011;42994;51.606;9.988;2023-07-24T00:07:51;1.20;;;1.00;;
57113;SDS011;42994;51.606;9.988;2023-07-24T00:10:17;1.67;;;1.30;;
57113;SDS011;42994;51.606;9.988;2023-07-24T00:12:44;1.65;;;1.27;;
57113;SDS011;42994;51.606;9.988;2023-07-24T00:15:11;3.28;;;1.50;;
57113;SDS011;42994;51.606;9.988;2023-07-24T00:17:37;3.88;;;1.30;;
57113;SDS011;42994;51.606;9.988;2023-07-24T00:20:05;1.40;;;1.30;;
57113;SDS011;42994;51.606;9.988;2023-07-24T00:22:33;1.60;;;1.50;;
57113;SDS011;42994;51.606;9.988;2023-07-24T00:25:01;1.67;;;1.48;;
57113;SDS011;42994;51.606;9.988;2023-07-24T00:27:31;1.50;;;1.40;;
57113;SDS011;42994;51.606;9.988;2023-07-24T00:29:57;2.33;;;1.30;;
57113;SDS011;42994;51.606;9.988;2023-07-24T00:32:26;2.45;;;1.75;;
57113;SDS011;42994;51.606;9.988;2023-07-24T00:34:54;1.90;;;1.60;;
57113;SDS011;42994;51.606;9.988;2023-07-24T00:37:23;1.55;;;1.45;;
57113;SDS011;42994;51.606;9.988;2023-07-24T00:39:50;2.80;;;1.55;;
57113;SDS011;42994;51.606;9.988;2023-07-24T00:42:18;1.40;;;1.30;;
57113;SDS011;42994;51.606;9.988;2023-07-24T00:44:47;2.65;;;1.55;;
57113;SDS011;42994;51.606;9.988;2023-07-24T00:47:16;1.45;;;1.35;;
57113;SDS011;42994;51.606;9.988;2023-07-24T00:49:45;1.35;;;1.25;;
57113;SDS011;42994;51.606;9.988;2023-07-24T00:52:13;1.40;;;1.30;;
57113;SDS011;42994;51.606;9.988;2023-07-24T00:54:41;4.32;;;1.60;;
57113;SDS011;42994;51.606;9.988;2023-07-24T00:57:12;1.65;;;1.55;;
57113;SDS011;42994;51.606;9.988;2023-07-24T00:59:42;5.28;;;1.67;;
57113;SDS011;42994;51.606;9.988;2023-07-24T01:02:10;1.90;;;1.65;;
57113;SDS011;42994;51.606;9.988;2023-07-24T01:04:38;1.23;;;1.13;;
57113;SDS011;42994;51.606;9.988;2023-07-24T01:07:05;2.50;;;1.50;;
57113;SDS011;42994;51.606;9.988;2023-07-24T01:09:33;1.60;;;1.50;;
57113;SDS011;42994;51.606;9.988;2023-07-24T01:12:01;3.67;;;1.52;;
57113;SDS011;42994;51.606;9.988;2023-07-24T01:14:36;2.05;;;1.35;;
57113;SDS011;42994;51.606;9.988;2023-07-24T01:17:10;2.95;;;1.88;;
57113;SDS011;42994;51.606;9.988;2023-07-24T01:19:43;1.98;;;1.45;;
57113;SDS011;42994;51.606;9.988;2023-07-24T01:22:14;1.67;;;1.52;;
57113;SDS011;42994;51.606;9.988;2023-07-24T01:25:00;2.47;;;1.80;;
57113;SDS011;42994;51.606;9.988;2023-07-24T01:27:33;4.97;;;1.95;;
57113;SDS011;42994;51.606;9.988;2023-07-24T01:30:00;1.75;;;1.60;;
57113;SDS011;42994;51.606;9.988;2023-07-24T01:32:28;2.38;;;1.65;;
57113;SDS011;42994;51.606;9.988;2023-07-24T01:34:55;6.20;;;1.70;;
57113;SDS011;42994;51.606;9.988;2023-07-24T01:37:22;4.15;;;1.65;;
57113;SDS011;42994;51.606;9.988;2023-07-24T01:39:52;3.85;;;2.03;;
57113;SDS011;42994;51.606;9.988;2023-07-24T01:42:20;2.67;;;1.65;;
57113;SDS011;42994;51.606;9.988;2023-07-24T01:44:52;2.25;;;1.85;;
57113;SDS011;42994;51.606;9.988;2023-07-24T01:47:19;3.38;;;1.83;;
57113;SDS011;42994;51.606;9.988;2023-07-24T01:49:47;1.95;;;1.67;;
57113;SDS011;42994;51.606;9.988;2023-07-24T01:52:14;2.20;;;1.95;;
57113;SDS011;42994;51.606;9.988;2023-07-24T01:54:41;3.67;;;2.00;;
57113;SDS011;42994;51.606;9.988;2023-07-24T01:57:08;3.55;;;1.85;;
57113;SDS011;42994;51.606;9.988;2023-07-24T01:59:35;2.40;;;1.83;;
57113;SDS011;42994;51.606;9.988;2023-07-24T02:02:04;1.85;;;1.75;;
57113;SDS011;42994;51.606;9.988;2023-07-24T02:04:31;2.92;;;1.92;;
57113;SDS011;42994;51.606;9.988;2023-07-24T02:06:58;2.50;;;1.90;;
57113;SDS011;42994;51.606;9.988;2023-07-24T02:09:24;2.95;;;1.92;;
57113;SDS011;42994;51.606;9.988;2023-07-24T02:11:51;3.78;;;1.70;;
57113;SDS011;42994;51.606;9.988;2023-07-24T02:14:18;3.22;;;2.40;;
57113;SDS011;42994;51.606;9.988;2023-07-24T02:16:46;2.03;;;1.80;;
57113;SDS011;42994;51.606;9.988;2023-07-24T02:19:15;2.47;;;1.73;;
57113;SDS011;42994;51.606;9.988;2023-07-24T02:21:43;2.85;;;1.90;;
57113;SDS011;42994;51.606;9.988;2023-07-24T02:24:10;1.90;;;1.80;;
57113;SDS011;42994;51.606;9.988;2023-07-24T02:26:37;1.92;;;1.23;;
57113;SDS011;42994;51.606;9.988;2023-07-24T02:29:04;1.55;;;1.38;;
57113;SDS011;42994;51.606;9.988;2023-07-24T02:31:30;3.88;;;2.25;;
57113;SDS011;42994;51.606;9.988;2023-07-24T02:33:57;2.00;;;1.63;;
57113;SDS011;42994;51.606;9.988;2023-07-24T02:36:26;4.35;;;1.70;;
57113;SDS011;42994;51.606;9.988;2023-07-24T02:38:52;4.82;;;2.15;;
57113;SDS011;42994;51.606;9.988;2023-07-24T02:41:19;2.97;;;1.90;;
57113;SDS011;42994;51.606;9.988;2023-07-24T02:43:46;2.78;;;1.50;;
57113;SDS011;42994;51.606;9.988;2023-07-24T02:46:13;2.65;;;1.90;;
57113;SDS011;42994;51.606;9.988;2023-07-24T02:48:41;2.58;;;1.77;;
57113;SDS011;42994;51.606;9.988;2023-07-24T02:51:08;2.67;;;2.00;;
57113;SDS011;42994;51.606;9.988;2023-07-24T02:53:36;4.32;;;1.85;;
57113;SDS011;42994;51.606;9.988;2023-07-24T02:56:04;3.28;;;1.75;;
57113;SDS011;42994;51.606;9.988;2023-07-24T02:58:31;5.32;;;1.98;;
57113;SDS011;42994;51.606;9.988;2023-07-24T03:01:02;5.13;;;2.30;;
57113;SDS011;42994;51.606;9.988;2023-07-24T03:03:29;3.50;;;2.15;;
57113;SDS011;42994;51.606;9.988;2023-07-24T03:05:56;4.38;;;2.15;;
57113;SDS011;42994;51.606;9.988;2023-07-24T03:08:23;2.28;;;2.00;;
57113;SDS011;42994;51.606;9.988;2023-07-24T03:10:51;5.28;;;2.83;;
57113;SDS011;42994;51.606;9.988;2023-07-24T03:13:18;4.47;;;1.83;;
57113;SDS011;42994;51.606;9.988;2023-07-24T03:15:51;6.85;;;1.80;;
57113;SDS011;42994;51.606;9.988;2023-07-24T03:18:19;2.40;;;1.95;;
57113;SDS011;42994;51.606;9.988;2023-07-24T03:20:46;3.55;;;1.90;;
57113;SDS011;42994;51.606;9.988;2023-07-24T03:23:13;3.97;;;1.88;;
57113;SDS011;42994;51.606;9.988;2023-07-24T03:25:40;2.40;;;2.20;;
57113;SDS011;42994;51.606;9.988;2023-07-24T03:28:08;1.80;;;1.58;;
57113;SDS011;42994;51.606;9.988;2023-07-24T03:30:35;2.88;;;1.42;;
57113;SDS011;42994;51.606;9.988;2023-07-24T03:33:02;3.30;;;2.38;;
57113;SDS011;42994;51.606;9.988;2023-07-24T03:35:31;5.90;;;2.50;;
57113;SDS011;42994;51.606;9.988;2023-07-24T03:37:58;3.95;;;2.10;;
57113;SDS011;42994;51.606;9.988;2023-07-24T03:40:25;3.75;;;1.98;;
57113;SDS011;42994;51.606;9.988;2023-07-24T03:42:52;2.20;;;1.90;;
57113;SDS011;42994;51.606;9.988;2023-07-24T03:45:20;2.60;;;2.00;;
57113;SDS011;42994;51.606;9.988;2023-07-24T03:47:47;3.65;;;2.30;;
57113;SDS011;42994;51.606;9.988;2023-07-24T03:50:14;1.60;;;1.50;;
57113;SDS011;42994;51.606;9.988;2023-07-24T03:52:40;6.80;;;1.98;;
57113;SDS011;42994;51.606;9.988;2023-07-24T03:55:07;3.47;;;2.10;;
57113;SDS011;42994;51.606;9.988;2023-07-24T03:57:35;3.60;;;1.70;;
57113;SDS011;42994;51.606;9.988;2023-07-24T04:00:02;3.13;;;2.20;;
57113;SDS011;42994;51.606;9.988;2023-07-24T04:02:39;4.57;;;2.20;;
57113;SDS011;42994;51.606;9.988;2023-07-24T04:05:06;2.70;;;1.88;;
57113;SDS011;42994;51.606;9.988;2023-07-24T04:07:33;1.77;;;1.65;;
57113;SDS011;42994;51.606;9.988;2023-07-24T04:09:59;5.82;;;2.00;;
57113;SDS011;42994;51.606;9.988;2023-07-24T04:12:28;2.25;;;1.95;;
57113;SDS011;42994;51.606;9.988;2023-07-24T04:14:55;3.60;;;1.98;;
57113;SDS011;42994;51.606;9.988;2023-07-24T04:17:22;4.50;;;1.70;;
57113;SDS011;42994;51.606;9.988;2023-07-24T04:19:50;3.00;;;1.90;;
57113;SDS011;42994;51.606;9.988;2023-07-24T04:22:17;2.88;;;1.67;;
57113;SDS011;42994;51.606;9.988;2023-07-24T04:24:44;2.67;;;1.80;;
57113;SDS011;42994;51.606;9.988;2023-07-24T04:27:11;2.97;;;2.22;;
57113;SDS011;42994;51.606;9.988;2023-07-24T04:29:39;3.58;;;2.10;;
57113;SDS011;42994;51.606;9.988;2023-07-24T04:32:07;5.75;;;2.28;;
57113;SDS011;42994;51.606;9.988;2023-07-24T04:34:34;3.95;;;2.30;;
57113;SDS011;42994;51.606;9.988;2023-07-24T04:37:03;4.22;;;1.75;;
57113;SDS011;42994;51.606;9.988;2023-07-24T04:39:30;3.58;;;2.25;;
57113;SDS011;42994;51.606;9.988;2023-07-24T04:41:56;2.63;;;2.00;;
57113;SDS011;42994;51.606;9.988;2023-07-24T04:44:23;2.30;;;1.90;;
57113;SDS011;42994;51.606;9.988;2023-07-24T04:46:50;4.70;;;2.13;;
57113;SDS011;42994;51.606;9.988;2023-07-24T04:49:17;4.93;;;2.20;;
57113;SDS011;42994;51.606;9.988;2023-07-24T04:51:44;4.90;;;1.98;;
57113;SDS011;42994;51.606;9.988;2023-07-24T04:54:12;2.45;;;2.15;;
57113;SDS011;42994;51.606;9.988;2023-07-24T04:56:39;4.60;;;2.40;;
57113;SDS011;42994;51.606;9.988;2023-07-24T04:59:06;5.15;;;2.75;;
57113;SDS011;42994;51.606;9.988;2023-07-24T05:01:32;4.00;;;2.50;;
57113;SDS011;42994;51.606;9.988;2023-07-24T05:03:59;3.53;;;2.10;;
57113;SDS011;42994;51.606;9.988;2023-07-24T05:06:26;2.28;;;1.98;;
57113;SDS011;42994;51.606;9.988;2023-07-24T05:08:53;2.13;;;1.65;;
57113;SDS011;42994;51.606;9.988;2023-07-24T05:11:21;2.42;;;1.98;;
57113;SDS011;42994;51.606;9.988;2023-07-24T05:13:48;3.38;;;2.42;;
57113;SDS011;42994;51.606;9.988;2023-07-24T05:16:15;8.50;;;1.92;;
57113;SDS011;42994;51.606;9.988;2023-07-24T05:18:42;3.33;;;2.00;;
57113;SDS011;42994;51.606;9.988;2023-07-24T05:21:09;3.55;;;1.65;;
57113;SDS011;42994;51.606;9.988;2023-07-24T05:23:36;2.30;;;2.10;;
57113;SDS011;42994;51.606;9.988;2023-07-24T05:26:04;4.07;;;2.38;;
57113;SDS011;42994;51.606;9.988;2023-07-24T05:28:33;4.80;;;1.88;;
57113;SDS011;42994;51.606;9.988;2023-07-24T05:31:00;2.22;;;1.85;;
57113;SDS011;42994;51.606;9.988;2023-07-24T05:33:27;5.00;;;2.15;;
57113;SDS011;42994;51.606;9.988;2023-07-24T05:35:57;2.42;;;2.22;;
57113;SDS011;42994;51.606;9.988;2023-07-24T05:38:25;2.80;;;2.10;;
57113;SDS011;42994;51.606;9.988;2023-07-24T05:40:55;2.45;;;2.25;;
57113;SDS011;42994;51.606;9.988;2023-07-24T05:43:22;2.50;;;2.00;;
57113;SDS011;42994;51.606;9.988;2023-07-24T05:45:51;3.70;;;2.20;;
57113;SDS011;42994;51.606;9.988;2023-07-24T05:48:19;2.25;;;1.90;;
57113;SDS011;42994;51.606;9.988;2023-07-24T05:50:46;2.90;;;2.17;;
57113;SDS011;42994;51.606;9.988;2023-07-24T05:53:13;2.30;;;2.10;;
57113;SDS011;42994;51.606;9.988;2023-07-24T05:55:40;4.15;;;2.00;;
57113;SDS011;42994;51.606;9.988;2023-07-24T05:58:07;5.07;;;2.00;;
57113;SDS011;42994;51.606;9.988;2023-07-24T06:00:34;3.95;;;2.25;;
57113;SDS011;42994;51.606;9.988;2023-07-24T06:03:03;3.30;;;1.80;;
57113;SDS011;42994;51.606;9.988;2023-07-24T06:05:30;4.13;;;2.45;;
57113;SDS011;42994;51.606;9.988;2023-07-24T06:07:56;2.45;;;2.10;;
57113;SDS011;42994;51.606;9.988;2023-07-24T06:10:23;7.03;;;2.28;;
57113;SDS011;42994;51.606;9.988;2023-07-24T06:12:50;4.13;;;2.20;;
57113;SDS011;42994;51.606;9.988;2023-07-24T06:15:17;3.22;;;2.40;;
57113;SDS011;42994;51.606;9.988;2023-07-24T06:17:44;3.70;;;2.22;;
57113;SDS011;42994;51.606;9.988;2023-07-24T06:20:12;4.38;;;2.65;;
57113;SDS011;42994;51.606;9.988;2023-07-24T06:22:39;5.57;;;2.03;;
57113;SDS011;42994;51.606;9.988;2023-07-24T06:25:06;2.08;;;1.88;;
57113;SDS011;42994;51.606;9.988;2023-07-24T06:27:34;3.25;;;2.10;;
57113;SDS011;42994;51.606;9.988;2023-07-24T06:30:00;5.30;;;2.05;;
57113;SDS011;42994;51.606;9.988;2023-07-24T06:32:28;2.95;;;2.05;;
57113;SDS011;42994;51.606;9.988;2023-07-24T06:34:54;2.95;;;2.08;;
57113;SDS011;42994;51.606;9.988;2023-07-24T06:37:23;3.55;;;2.25;;
57113;SDS011;42994;51.606;9.988;2023-07-24T06:39:50;2.95;;;2.65;;
57113;SDS011;42994;51.606;9.988;2023-07-24T06:42:17;7.32;;;2.65;;
57113;SDS011;42994;51.606;9.988;2023-07-24T06:44:44;4.15;;;2.28;;
57113;SDS011;42994;51.606;9.988;2023-07-24T06:47:11;4.63;;;2.55;;
57113;SDS011;42994;51.606;9.988;2023-07-24T06:49:38;6.00;;;2.25;;
57113;SDS011;42994;51.606;9.988;2023-07-24T06:52:05;2.60;;;2.15;;
57113;SDS011;42994;51.606;9.988;2023-07-24T06:54:34;4.28;;;2.45;;
57113;SDS011;42994;51.606;9.988;2023-07-24T06:57:00;4.75;;;2.42;;
57113;SDS011;42994;51.606;9.988;2023-07-24T06:59:27;3.20;;;2.22;;
57113;SDS011;42994;51.606;9.988;2023-07-24T07:01:54;4.10;;;2.75;;
57113;SDS011;42994;51.606;9.988;2023-07-24T07:04:21;4.78;;;2.67;;
57113;SDS011;42994;51.606;9.988;2023-07-24T07:06:48;3.75;;;2.30;;
57113;SDS011;42994;51.606;9.988;2023-07-24T07:09:14;3.42;;;2.42;;
57113;SDS011;42994;51.606;9.988;2023-07-24T07:11:43;4.35;;;2.53;;
57113;SDS011;42994;51.606;9.988;2023-07-24T07:14:10;3.33;;;2.60;;
57113;SDS011;42994;51.606;9.988;2023-07-24T07:16:37;5.25;;;2.72;;
57113;SDS011;42994;51.606;9.988;2023-07-24T07:19:06;4.38;;;2.47;;
57113;SDS011;42994;51.606;9.988;2023-07-24T07:21:34;4.82;;;2.53;;
57113;SDS011;42994;51.606;9.988;2023-07-24T07:24:01;2.75;;;2.55;;
57113;SDS011;42994;51.606;9.988;2023-07-24T07:26:28;3.55;;;2.70;;
57113;SDS011;42994;51.606;9.988;2023-07-24T07:28:57;3.53;;;2.50;;
57113;SDS011;42994;51.606;9.988;2023-07-24T07:31:23;2.90;;;2.70;;
57113;SDS011;42994;51.606;9.988;2023-07-24T07:33:50;5.38;;;2.95;;
57113;SDS011;42994;51.606;9.988;2023-07-24T07:36:17;2.70;;;2.50;;
57113;SDS011;42994;51.606;9.988;2023-07-24T07:38:44;6.50;;;2.92;;
57113;SDS011;42994;51.606;9.988;2023-07-24T07:41:11;6.28;;;3.10;;
57113;SDS011;42994;51.606;9.988;2023-07-24T07:43:38;6.28;;;3.17;;
57113;SDS011;42994;51.606;9.988;2023-07-24T07:46:06;2.85;;;2.33;;
57113;SDS011;42994;51.606;9.988;2023-07-24T07:48:33;3.95;;;3.00;;
57113;SDS011;42994;51.606;9.988;2023-07-24T07:50:59;3.42;;;2.90;;
57113;SDS011;42994;51.606;9.988;2023-07-24T07:53:26;5.13;;;3.20;;
57113;SDS011;42994;51.606;9.988;2023-07-24T07:55:56;5.07;;;2.92;;
57113;SDS011;42994;51.606;9.988;2023-07-24T07:58:24;4.90;;;3.72;;
57113;SDS011;42994;51.606;9.988;2023-07-24T08:00:51;5.47;;;3.10;;
57113;SDS011;42994;51.606;9.988;2023-07-24T08:03:19;5.93;;;2.95;;
57113;SDS011;42994;51.606;9.988;2023-07-24T08:05:46;5.78;;;3.25;;
57113;SDS011;42994;51.606;9.988;2023-07-24T08:08:13;4.32;;;3.15;;
57113;SDS011;42994;51.606;9.988;2023-07-24T08:10:40;3.85;;;3.00;;
57113;SDS011;42994;51.606;9.988;2023-07-24T08:13:07;4.43;;;3.22;;
57113;SDS011;42994;51.606;9.988;2023-07-24T08:15:34;5.13;;;3.28;;
57113;SDS011;42994;51.606;9.988;2023-07-24T08:18:02;9.95;;;3.78;;
57113;SDS011;42994;51.606;9.988;2023-07-24T08:20:31;5.07;;;3.80;;
57113;SDS011;42994;51.606;9.988;2023-07-24T08:25:27;5.75;;;3.50;;
57113;SDS011;42994;51.606;9.988;2023-07-24T08:27:54;4.43;;;3.30;;
57113;SDS011;42994;51.606;9.988;2023-07-24T08:30:21;4.35;;;3.70;;
57113;SDS011;42994;51.606;9.988;2023-07-24T08:32:48;5.50;;;3.03;;
57113;SDS011;42994;51.606;9.988;2023-07-24T08:35:16;4.75;;;3.22;;
57113;SDS011;42994;51.606;9.988;2023-07-24T08:37:44;8.55;;;3.65;;
57113;SDS011;42994;51.606;9.988;2023-07-24T08:40:11;7.65;;;3.30;;
57113;SDS011;42994;51.606;9.988;2023-07-24T08:42:38;4.70;;;3.10;;
57113;SDS011;42994;51.606;9.988;2023-07-24T08:45:08;4.63;;;3.40;;
57113;SDS011;42994;51.606;9.988;2023-07-24T08:47:39;7.25;;;2.97;;
57113;SDS011;42994;51.606;9.988;2023-07-24T08:50:08;4.78;;;3.08;;
57113;SDS011;42994;51.606;9.988;2023-07-24T08:52:37;4.57;;;3.20;;
57113;SDS011;42994;51.606;9.988;2023-07-24T08:55:07;4.07;;;3.45;;
57113;SDS011;42994;51.606;9.988;2023-07-24T08:57:36;5.78;;;3.00;;
57113;SDS011;42994;51.606;9.988;2023-07-24T09:00:03;4.78;;;3.47;;
57113;SDS011;42994;51.606;9.988;2023-07-24T09:02:32;4.53;;;3.20;;
57113;SDS011;42994;51.606;9.988;2023-07-24T09:05:00;6.32;;;3.15;;
57113;SDS011;42994;51.606;9.988;2023-07-24T09:07:27;3.40;;;2.60;;
57113;SDS011;42994;51.606;9.988;2023-07-24T09:09:56;6.30;;;3.80;;
57113;SDS011;42994;51.606;9.988;2023-07-24T09:12:24;8.18;;;3.55;;
57113;SDS011;42994;51.606;9.988;2023-07-24T09:15:00;5.13;;;3.30;;
57113;SDS011;42994;51.606;9.988;2023-07-24T09:17:28;3.72;;;3.25;;
57113;SDS011;42994;51.606;9.988;2023-07-24T09:19:55;3.50;;;3.20;;
57113;SDS011;42994;51.606;9.988;2023-07-24T09:22:23;6.05;;;3.08;;
57113;SDS011;42994;51.606;9.988;2023-07-24T09:24:53;5.40;;;2.95;;
57113;SDS011;42994;51.606;9.988;2023-07-24T09:27:24;4.60;;;3.03;;
57113;SDS011;42994;51.606;9.988;2023-07-24T09:29:55;6.03;;;2.97;;
57113;SDS011;42994;51.606;9.988;2023-07-24T09:32:22;6.05;;;3.13;;
57113;SDS011;42994;51.606;9.988;2023-07-24T09:34:50;4.15;;;3.10;;
57113;SDS011;42994;51.606;9.988;2023-07-24T09:37:23;5.38;;;3.20;;
57113;SDS011;42994;51.606;9.988;2023-07-24T09:39:51;5.50;;;2.65;;
57113;SDS011;42994;51.606;9.988;2023-07-24T09:42:18;6.93;;;3.38;;
57113;SDS011;42994;51.606;9.988;2023-07-24T09:44:54;3.58;;;3.28;;
57113;SDS011;42994;51.606;9.988;2023-07-24T09:47:21;4.30;;;2.97;;
57113;SDS011;42994;51.606;9.988;2023-07-24T09:49:48;4.70;;;3.42;;
57113;SDS011;42994;51.606;9.988;2023-07-24T09:52:17;5.35;;;2.92;;
57113;SDS011;42994;51.606;9.988;2023-07-24T09:54:46;4.25;;;3.28;;
57113;SDS011;42994;51.606;9.988;2023-07-24T09:57:21;4.68;;;3.10;;
57113;SDS011;42994;51.606;9.988;2023-07-24T09:59:48;5.00;;;3.17;;
57113;SDS011;42994;51.606;9.988;2023-07-24T10:02:17;3.58;;;3.03;;
57113;SDS011;42994;51.606;9.988;2023-07-24T10:04:45;4.35;;;3.00;;
57113;SDS011;42994;51.606;9.988;2023-07-24T10:07:13;7.15;;;3.05;;
57113;SDS011;42994;51.606;9.988;2023-07-24T10:09:40;5.20;;;2.88;;
57113;SDS011;42994;51.606;9.988;2023-07-24T10:12:09;4.45;;;3.53;;
57113;SDS011;42994;51.606;9.988;2023-07-24T10:14:37;5.72;;;3.20;;
57113;SDS011;42994;51.606;9.988;2023-07-24T10:17:04;3.83;;;2.78;;
57113;SDS011;42994;51.606;9.988;2023-07-24T10:19:36;4.55;;;3.25;;
57113;SDS011;42994;51.606;9.988;2023-07-24T10:22:05;4.05;;;3.63;;
57113;SDS011;42994;51.606;9.988;2023-07-24T10:24:32;3.25;;;2.95;;
57113;SDS011;42994;51.606;9.988;2023-07-24T10:26:59;3.67;;;3.20;;
57113;SDS011;42994;51.606;9.988;2023-07-24T10:29:29;4.03;;;3.10;;
57113;SDS011;42994;51.606;9.988;2023-07-24T10:32:02;3.70;;;3.35;;
57113;SDS011;42994;51.606;9.988;2023-07-24T10:34:37;4.60;;;3.45;;
57113;SDS011;42994;51.606;9.988;2023-07-24T10:37:06;6.63;;;3.50;;
57113;SDS011;42994;51.606;9.988;2023-07-24T10:39:38;3.50;;;3.20;;
57113;SDS011;42994;51.606;9.988;2023-07-24T10:42:07;5.45;;;3.60;;
57113;SDS011;42994;51.606;9.988;2023-07-24T10:44:35;5.47;;;3.80;;
57113;SDS011;42994;51.606;9.988;2023-07-24T10:47:02;5.82;;;3.70;;
57113;SDS011;42994;51.606;9.988;2023-07-24T10:49:29;5.65;;;3.25;;
57113;SDS011;42994;51.606;9.988;2023-07-24T10:51:58;5.25;;;3.65;;
57113;SDS011;42994;51.606;9.988;2023-07-24T10:54:26;6.28;;;3.63;;
57113;SDS011;42994;51.606;9.988;2023-07-24T10:56:57;4.95;;;4.28;;
57113;SDS011;42994;51.606;9.988;2023-07-24T10:59:36;8.27;;;4.40;;
57113;SDS011;42994;51.606;9.988;2023-07-24T11:02:04;5.80;;;3.90;;
57113;SDS011;42994;51.606;9.988;2023-07-24T11:04:32;5.00;;;4.18;;
57113;SDS011;42994;51.606;9.988;2023-07-24T11:07:01;5.10;;;3.88;;
57113;SDS011;42994;51.606;9.988;2023-07-24T11:09:34;3.78;;;3.33;;
57113;SDS011;42994;51.606;9.988;2023-07-24T11:12:09;7.20;;;3.75;;
57113;SDS011;42994;51.606;9.988;2023-07-24T11:14:45;5.22;;;4.07;;
57113;SDS011;42994;51.606;9.988;2023-07-24T11:17:14;5.85;;;4.05;;
57113;SDS011;42994;51.606;9.988;2023-07-24T11:19:40;6.15;;;3.85;;
57113;SDS011;42994;51.606;9.988;2023-07-24T11:22:09;5.60;;;3.92;;
57113;SDS011;42994;51.606;9.988;2023-07-24T11:24:43;4.20;;;3.50;;
57113;SDS011;42994;51.606;9.988;2023-07-24T11:27:12;5.47;;;3.90;;
57113;SDS011;42994;51.606;9.988;2023-07-24T11:29:40;5.38;;;3.63;;
57113;SDS011;42994;51.606;9.988;2023-07-24T11:32:07;6.82;;;4.20;;
57113;SDS011;42994;51.606;9.988;2023-07-24T11:34:35;5.70;;;3.95;;
57113;SDS011;42994;51.606;9.988;2023-07-24T11:37:03;7.13;;;4.22;;
57113;SDS011;42994;51.606;9.988;2023-07-24T11:39:32;7.03;;;4.53;;
57113;SDS011;42994;51.606;9.988;2023-07-24T11:42:00;6.43;;;3.83;;
57113;SDS011;42994;51.606;9.988;2023-07-24T11:44:27;5.78;;;4.28;;
57113;SDS011;42994;51.606;9.988;2023-07-24T11:47:01;5.63;;;4.18;;
57113;SDS011;42994;51.606;9.988;2023-07-24T11:49:28;7.50;;;4.43;;
57113;SDS011;42994;51.606;9.988;2023-07-24T11:51:59;3.70;;;3.35;;
57113;SDS011;42994;51.606;9.988;2023-07-24T11:54:27;6.72;;;4.35;;
57113;SDS011;42994;51.606;9.988;2023-07-24T11:56:55;8.35;;;4.50;;
57113;SDS011;42994;51.606;9.988;2023-07-24T11:59:24;6.43;;;3.97;;
57113;SDS011;42994;51.606;9.988;2023-07-24T12:01:51;5.20;;;3.90;;
57113;SDS011;42994;51.606;9.988;2023-07-24T12:04:18;6.30;;;4.35;;
57113;SDS011;42994;51.606;9.988;2023-07-24T12:06:45;5.05;;;4.18;;
57113;SDS011;42994;51.606;9.988;2023-07-24T12:09:13;4.72;;;3.60;;
57113;SDS011;42994;51.606;9.988;2023-07-24T12:11:40;5.18;;;3.78;;
57113;SDS011;42994;51.606;9.988;2023-07-24T12:14:09;4.95;;;3.90;;
57113;SDS011;42994;51.606;9.988;2023-07-24T12:16:36;4.75;;;4.10;;
57113;SDS011;42994;51.606;9.988;2023-07-24T12:19:03;4.82;;;3.85;;
57113;SDS011;42994;51.606;9.988;2023-07-24T12:21:30;6.75;;;4.18;;
57113;SDS011;42994;51.606;9.988;2023-07-24T12:23:57;4.78;;;3.75;;
57113;SDS011;42994;51.606;9.988;2023-07-24T12:26:24;6.55;;;4.00;;
57113;SDS011;42994;51.606;9.988;2023-07-24T12:28:53;5.80;;;3.72;;
57113;SDS011;42994;51.606;9.988;2023-07-24T12:31:22;6.70;;;3.78;;
57113;SDS011;42994;51.606;9.988;2023-07-24T12:33:48;7.07;;;4.25;;
57113;SDS011;42994;51.606;9.988;2023-07-24T12:36:15;7.10;;;3.85;;
57113;SDS011;42994;51.606;9.988;2023-07-24T12:38:42;5.07;;;3.92;;
57113;SDS011;42994;51.606;9.988;2023-07-24T12:41:09;4.30;;;3.65;;
57113;SDS011;42994;51.606;9.988;2023-07-24T12:43:36;4.38;;;3.50;;
57113;SDS011;42994;51.606;9.988;2023-07-24T12:46:02;4.25;;;3.28;;
57113;SDS011;42994;51.606;9.988;2023-07-24T12:48:31;4.93;;;3.13;;
57113;SDS011;42994;51.606;9.988;2023-07-24T12:50:58;5.63;;;3.40;;
57113;SDS011;42994;51.606;9.988;2023-07-24T12:53:25;8.38;;;3.75;;
57113;SDS011;42994;51.606;9.988;2023-07-24T12:55:52;4.18;;;3.30;;
57113;SDS011;42994;51.606;9.988;2023-07-24T12:58:19;5.93;;;3.72;;
57113;SDS011;42994;51.606;9.988;2023-07-24T13:00:47;7.28;;;4.00;;
57113;SDS011;42994;51.606;9.988;2023-07-24T13:03:14;4.65;;;3.67;;
57113;SDS011;42994;51.606;9.988;2023-07-24T13:05:43;6.22;;;3.40;;
57113;SDS011;42994;51.606;9.988;2023-07-24T13:08:10;4.53;;;3.17;;
57113;SDS011;42994;51.606;9.988;2023-07-24T13:10:37;3.60;;;3.28;;
57113;SDS011;42994;51.606;9.988;2023-07-24T13:13:04;5.93;;;3.95;;
57113;SDS011;42994;51.606;9.988;2023-07-24T13:15:30;3.88;;;3.13;;
57113;SDS011;42994;51.606;9.988;2023-07-24T13:17:57;3.75;;;3.25;;
57113;SDS011;42994;51.606;9.988;2023-07-24T13:20:24;5.15;;;3.13;;
57113;SDS011;42994;51.606;9.988;2023-07-24T13:22:53;4.03;;;3.53;;
57113;SDS011;42994;51.606;9.988;2023-07-24T13:25:19;4.25;;;3.67;;
57113;SDS011;42994;51.606;9.988;2023-07-24T13:27:47;4.95;;;3.40;;
57113;SDS011;42994;51.606;9.988;2023-07-24T13:30:14;4.68;;;3.25;;
57113;SDS011;42994;51.606;9.988;2023-07-24T13:32:41;4.40;;;3.67;;
57113;SDS011;42994;51.606;9.988;2023-07-24T13:35:09;5.35;;;3.25;;
57113;SDS011;42994;51.606;9.988;2023-07-24T13:37:36;4.35;;;3.92;;
57113;SDS011;42994;51.606;9.988;2023-07-24T13:40:05;5.45;;;3.60;;
57113;SDS011;42994;51.606;9.988;2023-07-24T13:42:32;6.55;;;4.15;;
57113;SDS011;42994;51.606;9.988;2023-07-24T13:44:59;3.72;;;3.28;;
57113;SDS011;42994;51.606;9.988;2023-07-24T13:47:26;4.60;;;3.75;;
57113;SDS011;42994;51.606;9.988;2023-07-24T13:49:53;7.63;;;3.58;;
57113;SDS011;42994;51.606;9.988;2023-07-24T13:52:20;6.05;;;4.50;;
57113;SDS011;42994;51.606;9.988;2023-07-24T13:54:47;5.25;;;4.10;;
57113;SDS011;42994;51.606;9.988;2023-07-24T13:57:15;4.88;;;3.65;;
57113;SDS011;42994;51.606;9.988;2023-07-24T13:59:42;7.50;;;4.57;;
57113;SDS011;42994;51.606;9.988;2023-07-24T14:02:10;3.92;;;3.53;;
57113;SDS011;42994;51.606;9.988;2023-07-24T14:04:38;6.72;;;3.83;;
57113;SDS011;42994;51.606;9.988;2023-07-24T14:07:05;5.13;;;4.25;;
57113;SDS011;42994;51.606;9.988;2023-07-24T14:09:32;5.68;;;4.32;;
57113;SDS011;42994;51.606;9.988;2023-07-24T14:12:00;5.70;;;4.47;;
57113;SDS011;42994;51.606;9.988;2023-07-24T14:14:28;4.70;;;3.83;;
57113;SDS011;42994;51.606;9.988;2023-07-24T14:16:55;6.50;;;4.47;;
57113;SDS011;42994;51.606;9.988;2023-07-24T14:19:22;6.50;;;3.95;;
57113;SDS011;42994;51.606;9.988;2023-07-24T14:21:49;5.00;;;4.25;;
57113;SDS011;42994;51.606;9.988;2023-07-24T14:24:16;6.53;;;4.70;;
57113;SDS011;42994;51.606;9.988;2023-07-24T14:26:44;4.95;;;4.22;;
57113;SDS011;42994;51.606;9.988;2023-07-24T14:29:11;7.13;;;4.50;;
57113;SDS011;42994;51.606;9.988;2023-07-24T14:31:39;6.80;;;4.85;;
57113;SDS011;42994;51.606;9.988;2023-07-24T14:34:06;7.88;;;4.13;;
57113;SDS011;42994;51.606;9.988;2023-07-24T14:36:36;6.40;;;3.95;;
57113;SDS011;42994;51.606;9.988;2023-07-24T14:39:03;6.20;;;4.25;;
57113;SDS011;42994;51.606;9.988;2023-07-24T14:41:30;6.97;;;4.45;;
57113;SDS011;42994;51.606;9.988;2023-07-24T14:43:57;8.98;;;4.45;;
57113;SDS011;42994;51.606;9.988;2023-07-24T14:46:24;6.82;;;4.68;;
57113;SDS011;42994;51.606;9.988;2023-07-24T14:48:53;7.30;;;4.22;;
57113;SDS011;42994;51.606;9.988;2023-07-24T14:51:21;20.10;;;2.47;;
57113;SDS011;42994;51.606;9.988;2023-07-24T14:53:52;11.60;;;1.08;;